Change the Weather History Date:

Wednesday, January 23, 2013

  Actual Average (KGEV) Record (KGEV)
Temperature  
Mean Temperature 24 °F -  
Max Temperature 33 °F 43 °F 68 °F (1974)
Min Temperature 16 °F 22 °F 1 °F (2014)
Degree Days  
Heating Degree Days 40    
Moisture  
Dew Point 10 °F    
Average Humidity 53    
Maximum Humidity 69    
Minimum Humidity 43    
Precipitation  
Precipitation 0.00 in - - ()
Sea Level Pressure  
Sea Level Pressure 30.13 in    
Wind  
Wind Speed 16 mph (West)    
Max Wind Speed 23 mph    
Max Gust Speed 30 mph    
Visibility 10 miles    
Events      
Averages and records for this station are not official NWS values.
T = Trace of Precipitation, MM = Missing Value Source: NWS Daily Summary

Daily Weather History Graph

Daily Weather History Graph

Search for Another Location

Airport or City:

Trip Planner

Search our weather history database for the weather conditions in past years. The results will help you decide how hot, cold, wet, or windy it might be!

Date:

Astronomy

Jan. 23, 2013 Rise Set
Actual Time 7:33 AM EST 5:41 PM EST
Civil Twilight 7:05 AM EST 6:09 PM EST
Nautical Twilight 6:34 AM EST 6:40 PM EST
Astronomical Twilight 6:03 AM EST 7:11 PM EST
Moon 2:51 PM EST (1/23) 4:43 AM EST (1/23)
Length of Visible Light 11h 03m
Length of Day
10h 07m
Waxing Gibbous, 89% of the Moon is Illuminated
Jan 23
Waxing Gibbous
Jan 26
Full
Feb 3
Last Quarter
Feb 10
New
Feb 17
First Quarter

Hourly Weather History & Observations

Time (EST) Temp. Windchill Dew Point Humidity Pressure Visibility Wind Dir Wind Speed Gust Speed Precip Events Conditions
12:15 AM 18.3 °F 3.6 °F -0.9 °F 43% 30.15 in 10.0 mi WNW 16.1 mph 23.0 mph N/A   Scattered Clouds
12:35 AM 18.1 °F 3.4 °F -0.4 °F 44% 30.15 in 10.0 mi WNW 16.1 mph 23.0 mph N/A   Overcast
12:55 AM 18.1 °F 3.4 °F -0.6 °F 44% 30.15 in 10.0 mi WNW 16.1 mph 25.3 mph N/A   Mostly Cloudy
1:15 AM 17.6 °F 2.7 °F -0.2 °F 46% 30.16 in 10.0 mi WNW 16.1 mph 23.0 mph N/A   Scattered Clouds
1:35 AM 17.6 °F 2.2 °F -0.2 °F 46% 30.16 in 10.0 mi WNW 17.3 mph 21.9 mph N/A   Clear
1:55 AM 17.4 °F 4.7 °F 0.1 °F 47% 30.16 in 10.0 mi WNW 11.5 mph - N/A   Clear
2:15 AM 17.6 °F 3.2 °F 0.1 °F 46% 30.17 in 10.0 mi WNW 15.0 mph 21.9 mph N/A   Clear
2:35 AM 17.4 °F 1.9 °F -0.0 °F 46% 30.18 in 10.0 mi WNW 17.3 mph 24.2 mph N/A   Mostly Cloudy
2:55 AM 17.2 °F 2.2 °F 0.3 °F 48% 30.18 in 10.0 mi WNW 16.1 mph 19.6 mph N/A   Mostly Cloudy
3:15 AM 17.8 °F 2.4 °F -0.4 °F 45% 30.18 in 10.0 mi WNW 17.3 mph 24.2 mph N/A   Scattered Clouds
3:35 AM 17.1 °F 2.0 °F 0.3 °F 48% 30.18 in 10.0 mi WNW 16.1 mph - N/A   Clear
3:55 AM 17.1 °F 2.5 °F -0.2 °F 47% 30.18 in 10.0 mi WNW 15.0 mph - N/A   Clear
4:15 AM 17.2 °F 3.9 °F -0.6 °F 46% 30.18 in 10.0 mi West 12.7 mph - N/A   Clear
4:35 AM 17.2 °F 3.3 °F -0.9 °F 45% 30.18 in 10.0 mi West 13.8 mph - N/A   Clear
4:55 AM 17.4 °F 2.4 °F -1.1 °F 44% 30.17 in 10.0 mi West 16.1 mph 23.0 mph N/A   Clear
5:15 AM 17.2 °F 1.7 °F -0.4 °F 46% 30.17 in 10.0 mi West 17.3 mph - N/A   Clear
5:35 AM 16.9 °F 1.2 °F 0.5 °F 49% 30.17 in 10.0 mi West 17.3 mph - N/A   Clear
5:55 AM 16.7 °F 1.0 °F 0.7 °F 49% 30.18 in 10.0 mi West 17.3 mph - N/A   Clear
6:15 AM 16.7 °F 0.5 °F 1.2 °F 51% 30.18 in 10.0 mi West 18.4 mph - N/A   Clear
6:35 AM 17.1 °F 1.0 °F 0.3 °F 48% 30.18 in 10.0 mi West 18.4 mph 23.0 mph N/A   Clear
6:55 AM 17.2 °F 1.2 °F -0.0 °F 47% 30.19 in 10.0 mi West 18.4 mph 25.3 mph N/A   Clear
7:15 AM 17.4 °F 1.5 °F -0.4 °F 46% 30.19 in 10.0 mi West 18.4 mph 23.0 mph N/A   Clear
7:35 AM 17.4 °F 1.9 °F -0.2 °F 46% 30.20 in 10.0 mi West 17.3 mph 24.2 mph N/A   Clear
7:55 AM 17.6 °F 2.2 °F 0.1 °F 46% 30.20 in 10.0 mi West 17.3 mph 24.2 mph N/A   Clear
8:15 AM 17.6 °F 2.7 °F 0.9 °F 48% 30.19 in 10.0 mi West 16.1 mph - N/A   Scattered Clouds
8:35 AM 18.3 °F 4.1 °F 1.8 °F 49% 30.20 in 10.0 mi West 15.0 mph 20.7 mph N/A   Scattered Clouds
8:55 AM 19.4 °F 3.6 °F 2.3 °F 48% 30.20 in 10.0 mi West 19.6 mph 23.0 mph N/A   Mostly Cloudy
9:15 AM 20.1 °F 3.4 °F 3.0 °F 48% 30.21 in 10.0 mi West 23.0 mph 26.5 mph N/A   Overcast
9:35 AM 21.0 °F 5.4 °F 3.9 °F 48% 30.21 in 10.0 mi West 20.7 mph - N/A   Overcast
9:55 AM 21.2 °F 6.0 °F 4.6 °F 49% 30.22 in 10.0 mi West 19.6 mph - N/A   Overcast
10:15 AM 22.3 °F 7.4 °F 5.7 °F 49% 30.22 in 10.0 mi West 19.6 mph 26.5 mph N/A   Overcast
10:35 AM 23.2 °F 10.3 °F 7.7 °F 52% 30.22 in 10.0 mi West 15.0 mph - N/A   Overcast
10:55 AM 23.9 °F 9.1 °F 8.6 °F 52% 30.22 in 10.0 mi West 20.7 mph 27.6 mph N/A   Overcast
11:15 AM 24.8 °F 11.1 °F 9.9 °F 53% 30.21 in 10.0 mi WSW 18.4 mph 23.0 mph N/A   Overcast
11:35 AM 25.9 °F 12.9 °F 10.2 °F 52% 30.20 in 10.0 mi West 17.3 mph 24.2 mph N/A   Overcast
11:55 AM 26.4 °F 12.8 °F 10.2 °F 51% 30.19 in 10.0 mi WSW 19.6 mph 27.6 mph N/A   Overcast
12:15 PM 27.3 °F 13.6 °F 11.3 °F 51% 30.18 in 10.0 mi West 20.7 mph 28.8 mph N/A   Overcast
12:35 PM 27.5 °F 14.6 °F 12.0 °F 52% 30.16 in 10.0 mi West 18.4 mph 25.3 mph N/A   Overcast
12:55 PM 28.2 °F 15.9 °F 12.6 °F 52% 30.15 in 10.0 mi West 17.3 mph 28.8 mph N/A   Overcast
1:15 PM 28.4 °F 14.4 °F 14.0 °F 55% 30.15 in 10.0 mi WSW 23.0 mph 26.5 mph N/A   Overcast
1:35 PM 28.4 °F 15.4 °F 14.0 °F 55% 30.14 in 10.0 mi West 19.6 mph 25.3 mph N/A   Overcast
1:55 PM 28.8 °F 16.2 °F 14.4 °F 55% 30.13 in 10.0 mi West 18.4 mph 28.8 mph N/A   Overcast
2:15 PM 29.5 °F 16.2 °F 14.4 °F 53% 30.11 in 10.0 mi West 21.9 mph 26.5 mph N/A   Overcast
2:35 PM 30.2 °F 17.8 °F 14.5 °F 52% 30.11 in 10.0 mi West 19.6 mph 26.5 mph N/A   Overcast
2:55 PM 31.3 °F 20.3 °F 15.3 °F 52% 30.11 in 10.0 mi WSW 16.1 mph 25.3 mph N/A   Overcast
3:15 PM 31.8 °F 20.6 °F 14.9 °F 50% 30.10 in 10.0 mi WSW 17.3 mph 24.2 mph N/A   Overcast
3:35 PM 32.2 °F 21.1 °F 15.6 °F 51% 30.10 in 10.0 mi WSW 17.3 mph 24.2 mph N/A   Mostly Cloudy
3:55 PM 32.4 °F 23.0 °F 16.9 °F 53% 30.10 in 10.0 mi WSW 12.7 mph - N/A   Mostly Cloudy
4:15 PM 33.4 °F 22.0 °F 16.3 °F 50% 30.09 in 10.0 mi WSW 19.6 mph 29.9 mph N/A   Mostly Cloudy
4:35 PM 33.3 °F 21.5 °F 16.7 °F 51% 30.08 in 10.0 mi WSW 20.7 mph 27.6 mph N/A   Scattered Clouds
4:55 PM 32.9 °F 22.8 °F 16.7 °F 51% 30.09 in 10.0 mi WSW 15.0 mph 25.3 mph N/A   Clear
5:15 PM 32.2 °F 21.8 °F 17.6 °F 55% 30.08 in 10.0 mi WSW 15.0 mph 23.0 mph N/A   Clear
5:35 PM 32.0 °F 22.1 °F 18.3 °F 57% 30.07 in 10.0 mi West 13.8 mph 17.3 mph N/A   Clear
5:55 PM 31.8 °F 21.8 °F 18.9 °F 59% 30.07 in 10.0 mi West 13.8 mph - N/A   Clear
6:15 PM 31.3 °F 21.6 °F 19.4 °F 61% 30.07 in 10.0 mi West 12.7 mph - N/A   Clear
6:35 PM 31.1 °F 22.4 °F 19.4 °F 62% 30.06 in 10.0 mi West 10.4 mph - N/A   Clear
6:55 PM 31.1 °F 22.4 °F 19.4 °F 62% 30.07 in 10.0 mi West 10.4 mph - N/A   Clear
7:15 PM 30.9 °F 22.8 °F 19.8 °F 63% 30.06 in 10.0 mi WSW 9.2 mph - N/A   Clear
7:35 PM 31.1 °F 21.9 °F 19.9 °F 63% 30.05 in 10.0 mi WSW 11.5 mph - N/A   Clear
7:55 PM 30.6 °F 21.2 °F 19.8 °F 64% 30.05 in 10.0 mi WSW 11.5 mph - N/A   Clear
8:15 PM 30.2 °F 21.3 °F 19.8 °F 65% 30.05 in 10.0 mi West 10.4 mph - N/A   Clear
8:35 PM 30.2 °F 21.3 °F 19.9 °F 66% 30.05 in 10.0 mi WSW 10.4 mph 16.1 mph N/A   Clear
8:55 PM 29.7 °F 20.7 °F 20.1 °F 68% 30.03 in 10.0 mi WSW 10.4 mph - N/A   Clear
9:15 PM 29.7 °F 19.6 °F 20.5 °F 69% 30.02 in 10.0 mi WSW 12.7 mph - N/A   Scattered Clouds
9:35 PM 30.2 °F 21.3 °F 21.0 °F 69% 30.02 in 10.0 mi WSW 10.4 mph - N/A   Overcast
9:55 PM 30.7 °F 20.9 °F 21.2 °F 68% 30.01 in 10.0 mi WSW 12.7 mph - N/A   Overcast
10:15 PM 30.7 °F 20.9 °F 21.2 °F 68% 30.01 in 10.0 mi WSW 12.7 mph - N/A   Overcast
10:35 PM 32.0 °F 21.2 °F 21.7 °F 66% 30.01 in 10.0 mi West 16.1 mph 19.6 mph N/A   Overcast
10:55 PM 32.0 °F 21.2 °F 21.9 °F 66% 30.00 in 10.0 mi WSW 16.1 mph 21.9 mph N/A   Overcast
11:15 PM 32.0 °F 21.6 °F 22.1 °F 67% 30.00 in 10.0 mi WSW 15.0 mph 21.9 mph N/A   Overcast
11:35 PM 32.2 °F 21.8 °F 22.1 °F 66% 30.00 in 10.0 mi WSW 15.0 mph 20.7 mph N/A   Overcast
11:55 PM 32.7 °F 23.0 °F 22.5 °F 66% 29.99 in 10.0 mi WSW 13.8 mph - N/A   Overcast